Newton Aycliffe, United Kingdom
Current Conditions -  °F | °C
As of 9:50 AM on Monday 22 Dec 2014 (Local Time) from EGNV Reporting Station
Few Clouds Few Clouds  
Wind Chill: 55°   Ceiling: Unl
Heat Index: 55°   Visibility: 6mi
Dew Point: 46°   Wind: 29mph
Humidity: 72%   Direction: 250°WSW
Pressure: 29.68"   Gusts: 44mph
Location:  54.62°N, 1.57°W
Report Text: EGNV 220950Z 25025G38KT 9999 FEW020 13/08 Q1005
Loading
Personal Weather Stations






























Interactive Weather Map New forecast layout! Learn more

10-Day Weather Forecast

Advertisements
Track Severe Weather on mobile